sensor_id;sensor_type;location;lat;lon;timestamp;P1;durP1;ratioP1;P2;durP2;ratioP2
30874;SDS011;17581;43.222;27.924;2023-07-31T00:02:19;16.52;;;4.45;;
30874;SDS011;17581;43.222;27.924;2023-07-31T00:04:44;12.90;;;5.80;;
30874;SDS011;17581;43.222;27.924;2023-07-31T00:07:10;11.38;;;4.30;;
30874;SDS011;17581;43.222;27.924;2023-07-31T00:09:36;13.48;;;4.40;;
30874;SDS011;17581;43.222;27.924;2023-07-31T00:12:01;15.48;;;5.22;;
30874;SDS011;17581;43.222;27.924;2023-07-31T00:14:27;12.48;;;4.78;;
30874;SDS011;17581;43.222;27.924;2023-07-31T00:16:52;10.70;;;5.20;;
30874;SDS011;17581;43.222;27.924;2023-07-31T00:19:18;10.55;;;5.05;;
30874;SDS011;17581;43.222;27.924;2023-07-31T00:21:44;17.27;;;4.72;;
30874;SDS011;17581;43.222;27.924;2023-07-31T00:24:09;14.10;;;4.25;;
30874;SDS011;17581;43.222;27.924;2023-07-31T00:26:35;15.00;;;4.97;;
30874;SDS011;17581;43.222;27.924;2023-07-31T00:29:00;18.05;;;5.32;;
30874;SDS011;17581;43.222;27.924;2023-07-31T00:31:25;17.00;;;4.65;;
30874;SDS011;17581;43.222;27.924;2023-07-31T00:33:51;8.00;;;4.38;;
30874;SDS011;17581;43.222;27.924;2023-07-31T00:36:17;18.88;;;5.45;;
30874;SDS011;17581;43.222;27.924;2023-07-31T00:38:43;23.88;;;4.45;;
30874;SDS011;17581;43.222;27.924;2023-07-31T00:41:09;11.27;;;4.93;;
30874;SDS011;17581;43.222;27.924;2023-07-31T00:43:34;15.65;;;5.75;;
30874;SDS011;17581;43.222;27.924;2023-07-31T00:45:59;13.82;;;5.05;;
30874;SDS011;17581;43.222;27.924;2023-07-31T00:48:25;11.85;;;5.38;;
30874;SDS011;17581;43.222;27.924;2023-07-31T00:50:51;6.40;;;4.30;;
30874;SDS011;17581;43.222;27.924;2023-07-31T00:53:17;14.45;;;4.22;;
30874;SDS011;17581;43.222;27.924;2023-07-31T00:55:43;11.40;;;4.25;;
30874;SDS011;17581;43.222;27.924;2023-07-31T00:58:09;17.00;;;6.00;;
30874;SDS011;17581;43.222;27.924;2023-07-31T01:00:34;23.35;;;5.03;;
30874;SDS011;17581;43.222;27.924;2023-07-31T01:03:00;13.32;;;5.40;;
30874;SDS011;17581;43.222;27.924;2023-07-31T01:11:08;15.40;;;5.38;;
30874;SDS011;17581;43.222;27.924;2023-07-31T01:13:37;9.48;;;4.88;;
30874;SDS011;17581;43.222;27.924;2023-07-31T01:16:03;15.13;;;4.75;;
30874;SDS011;17581;43.222;27.924;2023-07-31T01:18:29;20.85;;;5.20;;
30874;SDS011;17581;43.222;27.924;2023-07-31T01:20:57;26.20;;;7.13;;
30874;SDS011;17581;43.222;27.924;2023-07-31T01:26:34;8.45;;;4.60;;
30874;SDS011;17581;43.222;27.924;2023-07-31T01:29:10;13.90;;;4.82;;
30874;SDS011;17581;43.222;27.924;2023-07-31T01:31:53;9.38;;;4.50;;
30874;SDS011;17581;43.222;27.924;2023-07-31T01:34:20;13.45;;;5.45;;
30874;SDS011;17581;43.222;27.924;2023-07-31T01:36:47;15.65;;;4.88;;
30874;SDS011;17581;43.222;27.924;2023-07-31T01:39:13;10.65;;;4.43;;
30874;SDS011;17581;43.222;27.924;2023-07-31T01:41:40;17.85;;;5.28;;
30874;SDS011;17581;43.222;27.924;2023-07-31T01:44:06;10.65;;;4.85;;
30874;SDS011;17581;43.222;27.924;2023-07-31T01:46:31;10.38;;;5.25;;
30874;SDS011;17581;43.222;27.924;2023-07-31T01:48:57;10.55;;;4.88;;
30874;SDS011;17581;43.222;27.924;2023-07-31T01:51:22;9.40;;;4.43;;
30874;SDS011;17581;43.222;27.924;2023-07-31T01:53:47;15.13;;;4.25;;
30874;SDS011;17581;43.222;27.924;2023-07-31T01:56:13;9.57;;;4.75;;
30874;SDS011;17581;43.222;27.924;2023-07-31T01:58:38;11.80;;;5.20;;
30874;SDS011;17581;43.222;27.924;2023-07-31T02:01:04;40.25;;;6.13;;
30874;SDS011;17581;43.222;27.924;2023-07-31T02:03:29;10.30;;;4.75;;
30874;SDS011;17581;43.222;27.924;2023-07-31T02:05:55;12.13;;;4.60;;
30874;SDS011;17581;43.222;27.924;2023-07-31T02:08:21;19.17;;;4.93;;
30874;SDS011;17581;43.222;27.924;2023-07-31T02:10:47;11.48;;;5.53;;
30874;SDS011;17581;43.222;27.924;2023-07-31T02:13:12;14.45;;;4.85;;
30874;SDS011;17581;43.222;27.924;2023-07-31T02:15:38;13.85;;;5.25;;
30874;SDS011;17581;43.222;27.924;2023-07-31T02:18:03;12.95;;;6.35;;
30874;SDS011;17581;43.222;27.924;2023-07-31T02:20:29;6.35;;;4.70;;
30874;SDS011;17581;43.222;27.924;2023-07-31T02:22:54;11.20;;;5.50;;
30874;SDS011;17581;43.222;27.924;2023-07-31T02:25:19;14.15;;;6.03;;
30874;SDS011;17581;43.222;27.924;2023-07-31T02:27:45;9.25;;;5.78;;
30874;SDS011;17581;43.222;27.924;2023-07-31T02:30:10;12.23;;;5.55;;
30874;SDS011;17581;43.222;27.924;2023-07-31T02:32:36;18.70;;;5.57;;
30874;SDS011;17581;43.222;27.924;2023-07-31T02:35:02;14.27;;;5.68;;
30874;SDS011;17581;43.222;27.924;2023-07-31T02:37:27;10.70;;;5.20;;
30874;SDS011;17581;43.222;27.924;2023-07-31T02:39:54;33.95;;;6.78;;
30874;SDS011;17581;43.222;27.924;2023-07-31T02:42:19;19.25;;;6.50;;
30874;SDS011;17581;43.222;27.924;2023-07-31T02:44:45;11.48;;;5.00;;
30874;SDS011;17581;43.222;27.924;2023-07-31T02:47:10;13.52;;;5.00;;
30874;SDS011;17581;43.222;27.924;2023-07-31T02:49:35;9.00;;;5.15;;
30874;SDS011;17581;43.222;27.924;2023-07-31T02:52:01;9.05;;;5.43;;
30874;SDS011;17581;43.222;27.924;2023-07-31T02:54:26;12.65;;;4.97;;
30874;SDS011;17581;43.222;27.924;2023-07-31T02:56:52;10.20;;;3.75;;
30874;SDS011;17581;43.222;27.924;2023-07-31T02:59:17;16.98;;;5.03;;
30874;SDS011;17581;43.222;27.924;2023-07-31T03:01:43;10.75;;;4.70;;
30874;SDS011;17581;43.222;27.924;2023-07-31T03:04:09;16.73;;;4.65;;
30874;SDS011;17581;43.222;27.924;2023-07-31T03:06:34;11.38;;;4.93;;
30874;SDS011;17581;43.222;27.924;2023-07-31T03:09:00;7.80;;;4.80;;
30874;SDS011;17581;43.222;27.924;2023-07-31T03:11:25;21.60;;;4.95;;
30874;SDS011;17581;43.222;27.924;2023-07-31T03:13:51;14.23;;;5.00;;
30874;SDS011;17581;43.222;27.924;2023-07-31T03:16:17;13.63;;;5.03;;
30874;SDS011;17581;43.222;27.924;2023-07-31T03:18:42;20.25;;;6.55;;
30874;SDS011;17581;43.222;27.924;2023-07-31T03:21:08;20.65;;;5.85;;
30874;SDS011;17581;43.222;27.924;2023-07-31T03:23:33;25.10;;;5.60;;
30874;SDS011;17581;43.222;27.924;2023-07-31T03:25:59;10.25;;;4.32;;
30874;SDS011;17581;43.222;27.924;2023-07-31T03:28:25;26.27;;;4.82;;
30874;SDS011;17581;43.222;27.924;2023-07-31T03:30:51;27.55;;;5.45;;
30874;SDS011;17581;43.222;27.924;2023-07-31T03:33:17;26.30;;;6.80;;
30874;SDS011;17581;43.222;27.924;2023-07-31T03:35:43;17.92;;;5.95;;
30874;SDS011;17581;43.222;27.924;2023-07-31T03:38:08;24.00;;;7.65;;
30874;SDS011;17581;43.222;27.924;2023-07-31T03:40:34;20.27;;;6.35;;
30874;SDS011;17581;43.222;27.924;2023-07-31T03:42:59;39.55;;;7.65;;
30874;SDS011;17581;43.222;27.924;2023-07-31T03:45:24;13.75;;;5.75;;
30874;SDS011;17581;43.222;27.924;2023-07-31T03:47:50;17.85;;;6.65;;
30874;SDS011;17581;43.222;27.924;2023-07-31T03:50:16;35.67;;;7.07;;
30874;SDS011;17581;43.222;27.924;2023-07-31T03:52:41;37.75;;;8.23;;
30874;SDS011;17581;43.222;27.924;2023-07-31T03:55:06;25.63;;;7.70;;
30874;SDS011;17581;43.222;27.924;2023-07-31T03:57:32;18.05;;;6.03;;
30874;SDS011;17581;43.222;27.924;2023-07-31T03:59:58;15.82;;;4.63;;
30874;SDS011;17581;43.222;27.924;2023-07-31T04:02:23;22.92;;;5.88;;
30874;SDS011;17581;43.222;27.924;2023-07-31T04:04:49;77.32;;;8.32;;
30874;SDS011;17581;43.222;27.924;2023-07-31T04:07:14;40.22;;;7.53;;
30874;SDS011;17581;43.222;27.924;2023-07-31T04:09:40;28.63;;;7.07;;
30874;SDS011;17581;43.222;27.924;2023-07-31T04:12:05;39.97;;;9.55;;
30874;SDS011;17581;43.222;27.924;2023-07-31T04:14:31;29.42;;;8.90;;
30874;SDS011;17581;43.222;27.924;2023-07-31T04:16:56;55.22;;;10.45;;
30874;SDS011;17581;43.222;27.924;2023-07-31T04:19:22;31.52;;;10.07;;
30874;SDS011;17581;43.222;27.924;2023-07-31T04:21:49;36.25;;;9.85;;
30874;SDS011;17581;43.222;27.924;2023-07-31T04:24:14;58.35;;;11.73;;
30874;SDS011;17581;43.222;27.924;2023-07-31T04:26:40;43.90;;;11.52;;
30874;SDS011;17581;43.222;27.924;2023-07-31T04:29:05;72.45;;;13.15;;
30874;SDS011;17581;43.222;27.924;2023-07-31T04:31:30;60.42;;;12.57;;
30874;SDS011;17581;43.222;27.924;2023-07-31T04:33:56;75.28;;;12.65;;
30874;SDS011;17581;43.222;27.924;2023-07-31T04:36:21;67.82;;;13.50;;
30874;SDS011;17581;43.222;27.924;2023-07-31T04:38:47;28.08;;;9.25;;
30874;SDS011;17581;43.222;27.924;2023-07-31T04:41:12;53.63;;;11.43;;
30874;SDS011;17581;43.222;27.924;2023-07-31T04:43:38;40.53;;;9.90;;
30874;SDS011;17581;43.222;27.924;2023-07-31T04:46:04;42.88;;;10.98;;
30874;SDS011;17581;43.222;27.924;2023-07-31T04:48:30;23.90;;;10.00;;
30874;SDS011;17581;43.222;27.924;2023-07-31T04:50:55;29.67;;;8.82;;
30874;SDS011;17581;43.222;27.924;2023-07-31T04:53:21;20.30;;;7.82;;
30874;SDS011;17581;43.222;27.924;2023-07-31T04:55:46;34.67;;;9.27;;
30874;SDS011;17581;43.222;27.924;2023-07-31T04:58:12;26.67;;;8.82;;
30874;SDS011;17581;43.222;27.924;2023-07-31T05:00:37;29.58;;;9.32;;
30874;SDS011;17581;43.222;27.924;2023-07-31T05:03:03;29.15;;;9.82;;
30874;SDS011;17581;43.222;27.924;2023-07-31T05:05:28;24.52;;;8.10;;
30874;SDS011;17581;43.222;27.924;2023-07-31T05:07:54;25.15;;;7.63;;
30874;SDS011;17581;43.222;27.924;2023-07-31T05:10:19;26.00;;;6.75;;
30874;SDS011;17581;43.222;27.924;2023-07-31T05:12:44;46.03;;;7.80;;
30874;SDS011;17581;43.222;27.924;2023-07-31T05:15:10;27.67;;;7.00;;
30874;SDS011;17581;43.222;27.924;2023-07-31T05:17:35;22.52;;;5.40;;
30874;SDS011;17581;43.222;27.924;2023-07-31T05:20:01;28.30;;;4.32;;
30874;SDS011;17581;43.222;27.924;2023-07-31T05:22:26;42.28;;;6.93;;
30874;SDS011;17581;43.222;27.924;2023-07-31T05:24:52;31.30;;;5.05;;
30874;SDS011;17581;43.222;27.924;2023-07-31T05:27:19;16.63;;;5.60;;
30874;SDS011;17581;43.222;27.924;2023-07-31T05:29:44;19.40;;;5.45;;
30874;SDS011;17581;43.222;27.924;2023-07-31T05:32:10;17.98;;;6.07;;
30874;SDS011;17581;43.222;27.924;2023-07-31T05:34:36;25.05;;;6.43;;
30874;SDS011;17581;43.222;27.924;2023-07-31T05:37:01;15.43;;;6.30;;
30874;SDS011;17581;43.222;27.924;2023-07-31T05:39:26;16.55;;;5.20;;
30874;SDS011;17581;43.222;27.924;2023-07-31T05:41:52;15.07;;;4.88;;
30874;SDS011;17581;43.222;27.924;2023-07-31T05:44:17;21.35;;;6.35;;
30874;SDS011;17581;43.222;27.924;2023-07-31T05:46:43;26.67;;;7.38;;
30874;SDS011;17581;43.222;27.924;2023-07-31T05:49:08;23.23;;;7.18;;
30874;SDS011;17581;43.222;27.924;2023-07-31T05:51:33;66.53;;;10.05;;
30874;SDS011;17581;43.222;27.924;2023-07-31T05:53:59;21.80;;;8.10;;
30874;SDS011;17581;43.222;27.924;2023-07-31T05:56:24;20.67;;;8.90;;
30874;SDS011;17581;43.222;27.924;2023-07-31T05:58:51;11.48;;;7.68;;
30874;SDS011;17581;43.222;27.924;2023-07-31T06:01:17;45.20;;;16.80;;
30874;SDS011;17581;43.222;27.924;2023-07-31T06:03:42;67.68;;;14.38;;
30874;SDS011;17581;43.222;27.924;2023-07-31T06:06:08;46.65;;;14.07;;
30874;SDS011;17581;43.222;27.924;2023-07-31T06:08:34;29.90;;;7.82;;
30874;SDS011;17581;43.222;27.924;2023-07-31T06:10:59;42.08;;;8.52;;
30874;SDS011;17581;43.222;27.924;2023-07-31T06:13:25;39.60;;;12.65;;
30874;SDS011;17581;43.222;27.924;2023-07-31T06:15:50;23.23;;;8.63;;
30874;SDS011;17581;43.222;27.924;2023-07-31T06:18:15;32.83;;;13.30;;
30874;SDS011;17581;43.222;27.924;2023-07-31T06:20:41;33.88;;;13.80;;
30874;SDS011;17581;43.222;27.924;2023-07-31T06:23:07;27.27;;;9.10;;
30874;SDS011;17581;43.222;27.924;2023-07-31T06:25:33;17.73;;;7.07;;
30874;SDS011;17581;43.222;27.924;2023-07-31T06:27:58;17.83;;;8.43;;
30874;SDS011;17581;43.222;27.924;2023-07-31T06:30:24;16.83;;;8.52;;
30874;SDS011;17581;43.222;27.924;2023-07-31T06:32:49;31.77;;;9.63;;
30874;SDS011;17581;43.222;27.924;2023-07-31T06:35:14;33.65;;;8.20;;
30874;SDS011;17581;43.222;27.924;2023-07-31T06:37:40;30.67;;;8.05;;
30874;SDS011;17581;43.222;27.924;2023-07-31T06:40:08;23.58;;;9.35;;
30874;SDS011;17581;43.222;27.924;2023-07-31T06:42:34;16.60;;;9.50;;
30874;SDS011;17581;43.222;27.924;2023-07-31T06:45:00;30.30;;;9.85;;
30874;SDS011;17581;43.222;27.924;2023-07-31T06:47:26;29.27;;;9.48;;
30874;SDS011;17581;43.222;27.924;2023-07-31T06:49:52;17.17;;;9.40;;
30874;SDS011;17581;43.222;27.924;2023-07-31T06:52:17;21.23;;;10.35;;
30874;SDS011;17581;43.222;27.924;2023-07-31T06:54:43;21.65;;;10.35;;
30874;SDS011;17581;43.222;27.924;2023-07-31T06:57:08;26.80;;;10.88;;
30874;SDS011;17581;43.222;27.924;2023-07-31T06:59:33;17.48;;;10.07;;
30874;SDS011;17581;43.222;27.924;2023-07-31T07:01:59;28.45;;;9.05;;
30874;SDS011;17581;43.222;27.924;2023-07-31T07:04:24;24.50;;;9.38;;
30874;SDS011;17581;43.222;27.924;2023-07-31T07:06:51;14.63;;;8.02;;
30874;SDS011;17581;43.222;27.924;2023-07-31T07:09:16;17.67;;;7.35;;
30874;SDS011;17581;43.222;27.924;2023-07-31T07:11:41;21.83;;;8.20;;
30874;SDS011;17581;43.222;27.924;2023-07-31T07:14:07;19.73;;;8.18;;
30874;SDS011;17581;43.222;27.924;2023-07-31T07:16:32;44.20;;;12.32;;
30874;SDS011;17581;43.222;27.924;2023-07-31T07:18:58;20.05;;;8.38;;
30874;SDS011;17581;43.222;27.924;2023-07-31T07:21:23;22.38;;;7.05;;
30874;SDS011;17581;43.222;27.924;2023-07-31T07:23:48;11.40;;;6.10;;
30874;SDS011;17581;43.222;27.924;2023-07-31T07:26:14;12.13;;;6.30;;
30874;SDS011;17581;43.222;27.924;2023-07-31T07:28:39;16.02;;;7.53;;
30874;SDS011;17581;43.222;27.924;2023-07-31T07:31:05;14.57;;;6.93;;
30874;SDS011;17581;43.222;27.924;2023-07-31T07:33:30;41.78;;;9.02;;
30874;SDS011;17581;43.222;27.924;2023-07-31T07:35:59;21.75;;;7.15;;
30874;SDS011;17581;43.222;27.924;2023-07-31T07:38:25;18.65;;;6.93;;
30874;SDS011;17581;43.222;27.924;2023-07-31T07:40:51;36.22;;;8.60;;
30874;SDS011;17581;43.222;27.924;2023-07-31T07:43:18;13.60;;;6.55;;
30874;SDS011;17581;43.222;27.924;2023-07-31T07:45:43;11.57;;;6.07;;
30874;SDS011;17581;43.222;27.924;2023-07-31T07:48:09;71.47;;;18.48;;
30874;SDS011;17581;43.222;27.924;2023-07-31T07:50:35;27.48;;;8.55;;
30874;SDS011;17581;43.222;27.924;2023-07-31T07:53:00;25.63;;;8.13;;
30874;SDS011;17581;43.222;27.924;2023-07-31T07:55:26;10.95;;;6.82;;
30874;SDS011;17581;43.222;27.924;2023-07-31T07:57:51;12.43;;;5.22;;
30874;SDS011;17581;43.222;27.924;2023-07-31T08:00:16;10.00;;;5.43;;
30874;SDS011;17581;43.222;27.924;2023-07-31T08:02:42;7.32;;;5.40;;
30874;SDS011;17581;43.222;27.924;2023-07-31T08:05:08;12.23;;;4.97;;
30874;SDS011;17581;43.222;27.924;2023-07-31T08:07:33;7.13;;;5.32;;
30874;SDS011;17581;43.222;27.924;2023-07-31T08:09:59;16.50;;;9.73;;
30874;SDS011;17581;43.222;27.924;2023-07-31T08:12:24;13.80;;;5.32;;
30874;SDS011;17581;43.222;27.924;2023-07-31T08:14:50;17.88;;;5.85;;
30874;SDS011;17581;43.222;27.924;2023-07-31T08:17:16;9.95;;;4.07;;
30874;SDS011;17581;43.222;27.924;2023-07-31T08:19:42;6.15;;;4.55;;
30874;SDS011;17581;43.222;27.924;2023-07-31T08:22:07;18.65;;;5.35;;
30874;SDS011;17581;43.222;27.924;2023-07-31T08:24:32;6.97;;;4.90;;
30874;SDS011;17581;43.222;27.924;2023-07-31T08:26:58;16.10;;;4.85;;
30874;SDS011;17581;43.222;27.924;2023-07-31T08:29:24;11.35;;;4.82;;
30874;SDS011;17581;43.222;27.924;2023-07-31T08:31:50;8.13;;;4.95;;
30874;SDS011;17581;43.222;27.924;2023-07-31T08:34:15;18.40;;;4.72;;
30874;SDS011;17581;43.222;27.924;2023-07-31T08:36:41;8.32;;;4.50;;
30874;SDS011;17581;43.222;27.924;2023-07-31T08:39:06;30.67;;;5.50;;
30874;SDS011;17581;43.222;27.924;2023-07-31T08:41:36;7.00;;;4.38;;
30874;SDS011;17581;43.222;27.924;2023-07-31T08:44:03;5.67;;;4.07;;
30874;SDS011;17581;43.222;27.924;2023-07-31T08:46:29;15.18;;;4.20;;
30874;SDS011;17581;43.222;27.924;2023-07-31T08:48:55;24.40;;;6.97;;
30874;SDS011;17581;43.222;27.924;2023-07-31T08:51:21;12.88;;;5.97;;
30874;SDS011;17581;43.222;27.924;2023-07-31T08:53:46;38.53;;;7.88;;
30874;SDS011;17581;43.222;27.924;2023-07-31T08:56:12;34.38;;;7.32;;
30874;SDS011;17581;43.222;27.924;2023-07-31T08:58:40;13.45;;;4.75;;
30874;SDS011;17581;43.222;27.924;2023-07-31T09:01:05;14.68;;;5.32;;
30874;SDS011;17581;43.222;27.924;2023-07-31T09:03:33;11.65;;;5.82;;
30874;SDS011;17581;43.222;27.924;2023-07-31T09:06:00;16.85;;;4.95;;
30874;SDS011;17581;43.222;27.924;2023-07-31T09:08:29;58.00;;;10.35;;
30874;SDS011;17581;43.222;27.924;2023-07-31T09:10:58;36.92;;;7.45;;
30874;SDS011;17581;43.222;27.924;2023-07-31T09:13:25;42.75;;;6.53;;
30874;SDS011;17581;43.222;27.924;2023-07-31T09:15:53;26.95;;;5.68;;
30874;SDS011;17581;43.222;27.924;2023-07-31T09:18:19;16.73;;;4.82;;
30874;SDS011;17581;43.222;27.924;2023-07-31T09:20:59;15.35;;;4.82;;
30874;SDS011;17581;43.222;27.924;2023-07-31T09:23:42;8.18;;;4.68;;
30874;SDS011;17581;43.222;27.924;2023-07-31T09:26:09;6.90;;;4.63;;
30874;SDS011;17581;43.222;27.924;2023-07-31T09:28:34;6.60;;;4.18;;
30874;SDS011;17581;43.222;27.924;2023-07-31T09:31:00;23.02;;;6.45;;
30874;SDS011;17581;43.222;27.924;2023-07-31T09:33:25;12.07;;;5.25;;
30874;SDS011;17581;43.222;27.924;2023-07-31T09:35:51;9.55;;;4.35;;
30874;SDS011;17581;43.222;27.924;2023-07-31T09:38:16;15.63;;;5.43;;
30874;SDS011;17581;43.222;27.924;2023-07-31T09:40:43;9.90;;;5.25;;
30874;SDS011;17581;43.222;27.924;2023-07-31T09:43:11;7.35;;;4.70;;
30874;SDS011;17581;43.222;27.924;2023-07-31T09:45:44;14.27;;;5.00;;
30874;SDS011;17581;43.222;27.924;2023-07-31T09:48:11;14.70;;;4.80;;
30874;SDS011;17581;43.222;27.924;2023-07-31T09:50:38;17.15;;;4.45;;
30874;SDS011;17581;43.222;27.924;2023-07-31T09:53:08;8.20;;;3.95;;
30874;SDS011;17581;43.222;27.924;2023-07-31T09:55:34;16.88;;;4.57;;
30874;SDS011;17581;43.222;27.924;2023-07-31T09:58:03;8.57;;;3.83;;
30874;SDS011;17581;43.222;27.924;2023-07-31T10:00:33;7.72;;;4.18;;
30874;SDS011;17581;43.222;27.924;2023-07-31T10:02:59;17.33;;;4.72;;
30874;SDS011;17581;43.222;27.924;2023-07-31T10:05:31;8.02;;;3.55;;
30874;SDS011;17581;43.222;27.924;2023-07-31T10:08:00;5.55;;;4.00;;
30874;SDS011;17581;43.222;27.924;2023-07-31T10:10:25;19.30;;;3.72;;
30874;SDS011;17581;43.222;27.924;2023-07-31T10:12:52;3.28;;;2.97;;
30874;SDS011;17581;43.222;27.924;2023-07-31T10:15:19;8.85;;;3.33;;
30874;SDS011;17581;43.222;27.924;2023-07-31T10:17:48;5.97;;;3.38;;
30874;SDS011;17581;43.222;27.924;2023-07-31T10:20:15;5.82;;;3.83;;
30874;SDS011;17581;43.222;27.924;2023-07-31T10:22:42;13.75;;;3.67;;
30874;SDS011;17581;43.222;27.924;2023-07-31T10:25:08;10.52;;;3.72;;
30874;SDS011;17581;43.222;27.924;2023-07-31T10:27:41;9.52;;;4.13;;
30874;SDS011;17581;43.222;27.924;2023-07-31T10:32:34;15.93;;;3.40;;
30874;SDS011;17581;43.222;27.924;2023-07-31T10:35:01;9.48;;;3.67;;
30874;SDS011;17581;43.222;27.924;2023-07-31T10:37:29;5.45;;;3.22;;
30874;SDS011;17581;43.222;27.924;2023-07-31T10:40:09;4.40;;;3.70;;
30874;SDS011;17581;43.222;27.924;2023-07-31T10:45:31;5.57;;;3.80;;
30874;SDS011;17581;43.222;27.924;2023-07-31T10:48:15;4.50;;;3.80;;
30874;SDS011;17581;43.222;27.924;2023-07-31T10:50:51;4.35;;;3.65;;
30874;SDS011;17581;43.222;27.924;2023-07-31T10:53:24;5.40;;;3.65;;
30874;SDS011;17581;43.222;27.924;2023-07-31T10:55:50;4.82;;;3.78;;
30874;SDS011;17581;43.222;27.924;2023-07-31T10:58:20;8.75;;;4.32;;
30874;SDS011;17581;43.222;27.924;2023-07-31T11:00:46;10.55;;;3.88;;
30874;SDS011;17581;43.222;27.924;2023-07-31T11:03:18;7.75;;;3.47;;
30874;SDS011;17581;43.222;27.924;2023-07-31T11:08:24;5.03;;;3.50;;
30874;SDS011;17581;43.222;27.924;2023-07-31T11:10:51;5.20;;;3.53;;
30874;SDS011;17581;43.222;27.924;2023-07-31T11:13:43;8.40;;;4.82;;
30874;SDS011;17581;43.222;27.924;2023-07-31T11:16:11;9.25;;;4.88;;
30874;SDS011;17581;43.222;27.924;2023-07-31T11:18:41;9.10;;;3.47;;
30874;SDS011;17581;43.222;27.924;2023-07-31T11:21:13;6.55;;;3.67;;
30874;SDS011;17581;43.222;27.924;2023-07-31T11:23:40;6.78;;;3.38;;
30874;SDS011;17581;43.222;27.924;2023-07-31T11:26:06;9.23;;;3.55;;
30874;SDS011;17581;43.222;27.924;2023-07-31T11:28:32;3.92;;;3.33;;
30874;SDS011;17581;43.222;27.924;2023-07-31T11:30:59;4.70;;;3.22;;
30874;SDS011;17581;43.222;27.924;2023-07-31T11:33:25;13.55;;;4.07;;
30874;SDS011;17581;43.222;27.924;2023-07-31T11:35:51;8.55;;;3.50;;
30874;SDS011;17581;43.222;27.924;2023-07-31T11:38:26;12.15;;;4.10;;
30874;SDS011;17581;43.222;27.924;2023-07-31T11:40:56;6.28;;;2.85;;
30874;SDS011;17581;43.222;27.924;2023-07-31T11:43:23;6.72;;;3.30;;
30874;SDS011;17581;43.222;27.924;2023-07-31T11:45:49;7.45;;;3.67;;
30874;SDS011;17581;43.222;27.924;2023-07-31T11:48:35;13.90;;;3.42;;
30874;SDS011;17581;43.222;27.924;2023-07-31T11:51:05;10.88;;;3.53;;
30874;SDS011;17581;43.222;27.924;2023-07-31T11:53:45;15.98;;;5.95;;
30874;SDS011;17581;43.222;27.924;2023-07-31T11:56:16;5.45;;;4.18;;
30874;SDS011;17581;43.222;27.924;2023-07-31T11:58:43;57.10;;;10.50;;
30874;SDS011;17581;43.222;27.924;2023-07-31T12:01:22;7.25;;;3.60;;
30874;SDS011;17581;43.222;27.924;2023-07-31T12:03:49;13.57;;;4.15;;
30874;SDS011;17581;43.222;27.924;2023-07-31T12:06:15;8.43;;;3.97;;
30874;SDS011;17581;43.222;27.924;2023-07-31T12:08:41;6.40;;;4.25;;
30874;SDS011;17581;43.222;27.924;2023-07-31T12:11:07;10.52;;;3.92;;
30874;SDS011;17581;43.222;27.924;2023-07-31T12:13:38;21.90;;;5.18;;
30874;SDS011;17581;43.222;27.924;2023-07-31T12:16:04;7.60;;;4.70;;
30874;SDS011;17581;43.222;27.924;2023-07-31T12:18:31;66.75;;;10.65;;
30874;SDS011;17581;43.222;27.924;2023-07-31T12:21:00;9.45;;;5.05;;
30874;SDS011;17581;43.222;27.924;2023-07-31T12:23:30;12.77;;;4.70;;
30874;SDS011;17581;43.222;27.924;2023-07-31T12:28:54;5.25;;;4.38;;
30874;SDS011;17581;43.222;27.924;2023-07-31T12:31:21;26.15;;;5.75;;
30874;SDS011;17581;43.222;27.924;2023-07-31T12:33:48;24.42;;;8.73;;
30874;SDS011;17581;43.222;27.924;2023-07-31T12:36:16;5.20;;;4.70;;
30874;SDS011;17581;43.222;27.924;2023-07-31T12:38:43;9.63;;;5.32;;
30874;SDS011;17581;43.222;27.924;2023-07-31T12:41:09;7.80;;;5.00;;
30874;SDS011;17581;43.222;27.924;2023-07-31T12:43:36;10.10;;;4.88;;
30874;SDS011;17581;43.222;27.924;2023-07-31T12:46:02;8.23;;;5.05;;
30874;SDS011;17581;43.222;27.924;2023-07-31T12:48:28;32.40;;;6.65;;
30874;SDS011;17581;43.222;27.924;2023-07-31T12:50:54;20.75;;;6.28;;
30874;SDS011;17581;43.222;27.924;2023-07-31T12:53:19;17.48;;;5.82;;
30874;SDS011;17581;43.222;27.924;2023-07-31T12:55:45;7.18;;;4.60;;
30874;SDS011;17581;43.222;27.924;2023-07-31T12:58:10;10.23;;;4.70;;
30874;SDS011;17581;43.222;27.924;2023-07-31T13:00:36;18.98;;;5.10;;
30874;SDS011;17581;43.222;27.924;2023-07-31T13:03:01;20.52;;;5.78;;
30874;SDS011;17581;43.222;27.924;2023-07-31T13:05:28;8.68;;;4.63;;
30874;SDS011;17581;43.222;27.924;2023-07-31T13:07:53;16.20;;;4.32;;
30874;SDS011;17581;43.222;27.924;2023-07-31T13:10:19;17.27;;;4.85;;
30874;SDS011;17581;43.222;27.924;2023-07-31T13:12:45;8.50;;;3.83;;
30874;SDS011;17581;43.222;27.924;2023-07-31T13:15:10;34.88;;;6.93;;
30874;SDS011;17581;43.222;27.924;2023-07-31T13:17:36;14.63;;;3.58;;
30874;SDS011;17581;43.222;27.924;2023-07-31T13:20:02;15.25;;;5.28;;
30874;SDS011;17581;43.222;27.924;2023-07-31T13:22:28;12.75;;;4.82;;
30874;SDS011;17581;43.222;27.924;2023-07-31T13:24:54;7.53;;;3.58;;
30874;SDS011;17581;43.222;27.924;2023-07-31T13:27:19;13.20;;;4.30;;
30874;SDS011;17581;43.222;27.924;2023-07-31T13:29:46;28.25;;;5.38;;
30874;SDS011;17581;43.222;27.924;2023-07-31T13:32:13;14.63;;;5.13;;
30874;SDS011;17581;43.222;27.924;2023-07-31T13:34:38;11.27;;;4.85;;
30874;SDS011;17581;43.222;27.924;2023-07-31T13:37:04;17.63;;;5.10;;
30874;SDS011;17581;43.222;27.924;2023-07-31T13:39:31;39.03;;;8.48;;
30874;SDS011;17581;43.222;27.924;2023-07-31T13:41:57;7.65;;;4.53;;
30874;SDS011;17581;43.222;27.924;2023-07-31T13:44:23;6.97;;;3.63;;
30874;SDS011;17581;43.222;27.924;2023-07-31T13:46:48;12.48;;;4.65;;
30874;SDS011;17581;43.222;27.924;2023-07-31T13:49:14;8.27;;;4.00;;
30874;SDS011;17581;43.222;27.924;2023-07-31T13:51:39;19.48;;;5.45;;
30874;SDS011;17581;43.222;27.924;2023-07-31T13:54:05;15.27;;;5.38;;
30874;SDS011;17581;43.222;27.924;2023-07-31T13:56:31;20.83;;;4.85;;
30874;SDS011;17581;43.222;27.924;2023-07-31T13:58:57;20.95;;;6.05;;
30874;SDS011;17581;43.222;27.924;2023-07-31T14:01:23;38.30;;;7.28;;
30874;SDS011;17581;43.222;27.924;2023-07-31T14:03:49;11.13;;;4.57;;
30874;SDS011;17581;43.222;27.924;2023-07-31T14:06:14;22.48;;;6.45;;
30874;SDS011;17581;43.222;27.924;2023-07-31T14:08:40;16.52;;;5.07;;
30874;SDS011;17581;43.222;27.924;2023-07-31T14:11:05;13.10;;;4.72;;
30874;SDS011;17581;43.222;27.924;2023-07-31T14:13:30;8.65;;;4.80;;
30874;SDS011;17581;43.222;27.924;2023-07-31T14:15:56;6.40;;;4.80;;
30874;SDS011;17581;43.222;27.924;2023-07-31T14:18:21;5.55;;;5.05;;
30874;SDS011;17581;43.222;27.924;2023-07-31T14:20:47;17.98;;;6.53;;
30874;SDS011;17581;43.222;27.924;2023-07-31T14:23:12;13.55;;;5.70;;
30874;SDS011;17581;43.222;27.924;2023-07-31T14:25:38;12.88;;;4.88;;
30874;SDS011;17581;43.222;27.924;2023-07-31T14:28:03;10.40;;;5.28;;
30874;SDS011;17581;43.222;27.924;2023-07-31T14:30:29;13.38;;;5.35;;
30874;SDS011;17581;43.222;27.924;2023-07-31T14:32:55;7.00;;;4.13;;
30874;SDS011;17581;43.222;27.924;2023-07-31T14:35:20;8.13;;;4.80;;
30874;SDS011;17581;43.222;27.924;2023-07-31T14:37:45;19.15;;;6.13;;
30874;SDS011;17581;43.222;27.924;2023-07-31T14:40:11;4.97;;;4.28;;